sensor_id;sensor_type;location;lat;lon;timestamp;pressure;altitude;pressure_sealevel;temperature;humidity
48792;BME280;34587;48.816;9.420;2023-05-21T04:47:37;98344.34;;;12.97;100.00
48792;BME280;34587;48.816;9.420;2023-05-21T04:50:03;98349.25;;;13.06;100.00
48792;BME280;34587;48.816;9.420;2023-05-21T04:52:29;98357.41;;;13.21;100.00
48792;BME280;34587;48.816;9.420;2023-05-21T04:54:55;98347.81;;;13.23;100.00
48792;BME280;34587;48.816;9.420;2023-05-21T04:57:20;98347.66;;;13.27;100.00
48792;BME280;34587;48.816;9.420;2023-05-21T04:59:45;98352.06;;;13.49;100.00
48792;BME280;34587;48.816;9.420;2023-05-21T05:02:11;98347.94;;;13.43;100.00
48792;BME280;34587;48.816;9.420;2023-05-21T05:04:37;98343.16;;;13.56;100.00
48792;BME280;34587;48.816;9.420;2023-05-21T05:07:02;98348.75;;;13.69;99.43
48792;BME280;34587;48.816;9.420;2023-05-21T05:09:28;98350.22;;;13.76;98.77
48792;BME280;34587;48.816;9.420;2023-05-21T05:11:54;98348.50;;;13.98;97.44
48792;BME280;34587;48.816;9.420;2023-05-21T05:14:19;98356.31;;;13.98;96.57
48792;BME280;34587;48.816;9.420;2023-05-21T05:16:45;98347.47;;;14.02;96.84
48792;BME280;34587;48.816;9.420;2023-05-21T05:19:12;98349.41;;;14.19;95.85
48792;BME280;34587;48.816;9.420;2023-05-21T05:21:37;98349.03;;;14.28;94.52
48792;BME280;34587;48.816;9.420;2023-05-21T05:24:03;98346.84;;;14.39;93.97
48792;BME280;34587;48.816;9.420;2023-05-21T05:26:28;98351.81;;;14.68;92.43
48792;BME280;34587;48.816;9.420;2023-05-21T05:28:54;98350.66;;;14.75;91.03
48792;BME280;34587;48.816;9.420;2023-05-21T05:31:19;98350.66;;;14.95;90.55
48792;BME280;34587;48.816;9.420;2023-05-21T05:33:44;98352.81;;;15.06;90.39
48792;BME280;34587;48.816;9.420;2023-05-21T05:36:10;98350.28;;;15.04;89.75
48792;BME280;34587;48.816;9.420;2023-05-21T05:38:35;98345.97;;;15.24;89.28
48792;BME280;34587;48.816;9.420;2023-05-21T05:41:00;98350.22;;;15.45;87.78
48792;BME280;34587;48.816;9.420;2023-05-21T05:43:26;98343.03;;;15.50;87.33
48792;BME280;34587;48.816;9.420;2023-05-21T05:45:51;98338.84;;;15.66;86.12
48792;BME280;34587;48.816;9.420;2023-05-21T05:48:16;98337.56;;;15.94;84.90
48792;BME280;34587;48.816;9.420;2023-05-21T05:50:43;98338.09;;;16.19;81.90
48792;BME280;34587;48.816;9.420;2023-05-21T05:53:09;98339.63;;;16.24;81.80
48792;BME280;34587;48.816;9.420;2023-05-21T05:55:37;98335.81;;;16.31;81.60
48792;BME280;34587;48.816;9.420;2023-05-21T05:58:02;98340.44;;;16.43;81.26
48792;BME280;34587;48.816;9.420;2023-05-21T06:00:28;98340.25;;;16.65;80.81
48792;BME280;34587;48.816;9.420;2023-05-21T06:02:53;98338.53;;;16.83;79.42
48792;BME280;34587;48.816;9.420;2023-05-21T06:05:18;98340.34;;;16.81;78.80
48792;BME280;34587;48.816;9.420;2023-05-21T06:07:44;98344.66;;;16.99;78.90
48792;BME280;34587;48.816;9.420;2023-05-21T06:10:09;98336.00;;;17.32;77.42
48792;BME280;34587;48.816;9.420;2023-05-21T06:12:35;98344.66;;;16.82;78.20
48792;BME280;34587;48.816;9.420;2023-05-21T06:15:00;98342.31;;;16.58;79.93
48792;BME280;34587;48.816;9.420;2023-05-21T06:17:26;98337.88;;;16.95;78.57
48792;BME280;34587;48.816;9.420;2023-05-21T06:19:51;98332.38;;;17.50;76.08
48792;BME280;34587;48.816;9.420;2023-05-21T06:22:16;98338.47;;;18.15;73.75
48792;BME280;34587;48.816;9.420;2023-05-21T06:24:41;98329.00;;;17.81;74.11
48792;BME280;34587;48.816;9.420;2023-05-21T06:27:07;98330.22;;;18.53;72.73
48792;BME280;34587;48.816;9.420;2023-05-21T06:29:32;98331.69;;;18.43;71.74
48792;BME280;34587;48.816;9.420;2023-05-21T06:31:57;98337.72;;;18.59;70.96
48792;BME280;34587;48.816;9.420;2023-05-21T06:34:23;98328.50;;;19.12;70.97
48792;BME280;34587;48.816;9.420;2023-05-21T06:36:50;98329.47;;;19.40;68.28
48792;BME280;34587;48.816;9.420;2023-05-21T06:39:15;98334.34;;;19.46;68.14
48792;BME280;34587;48.816;9.420;2023-05-21T06:41:41;98336.16;;;19.60;67.98
48792;BME280;34587;48.816;9.420;2023-05-21T06:44:06;98328.25;;;20.15;66.02
48792;BME280;34587;48.816;9.420;2023-05-21T06:46:31;98330.50;;;20.88;63.05
48792;BME280;34587;48.816;9.420;2023-05-21T06:48:56;98322.69;;;21.39;60.12
48792;BME280;34587;48.816;9.420;2023-05-21T06:51:22;98331.13;;;20.79;60.89
48792;BME280;34587;48.816;9.420;2023-05-21T06:53:47;98332.91;;;22.06;58.82
48792;BME280;34587;48.816;9.420;2023-05-21T06:56:12;98330.00;;;23.05;54.63
48792;BME280;34587;48.816;9.420;2023-05-21T06:58:38;98330.47;;;23.10;54.68
48792;BME280;34587;48.816;9.420;2023-05-21T07:01:03;98340.25;;;23.54;52.94
48792;BME280;34587;48.816;9.420;2023-05-21T07:03:28;98341.09;;;23.44;52.67
48792;BME280;34587;48.816;9.420;2023-05-21T07:05:54;98346.13;;;22.78;54.40
48792;BME280;34587;48.816;9.420;2023-05-21T07:08:20;98341.25;;;22.37;53.84
48792;BME280;34587;48.816;9.420;2023-05-21T07:10:45;98342.03;;;23.20;52.29
48792;BME280;34587;48.816;9.420;2023-05-21T07:13:11;98339.22;;;23.46;51.14
48792;BME280;34587;48.816;9.420;2023-05-21T07:15:36;98334.00;;;22.87;51.55
48792;BME280;34587;48.816;9.420;2023-05-21T07:18:02;98348.50;;;23.05;50.34
48792;BME280;34587;48.816;9.420;2023-05-21T07:20:27;98337.50;;;23.33;50.61
48792;BME280;34587;48.816;9.420;2023-05-21T07:22:53;98332.47;;;23.64;49.49
48792;BME280;34587;48.816;9.420;2023-05-21T07:25:18;98339.94;;;23.93;48.85
48792;BME280;34587;48.816;9.420;2023-05-21T07:27:43;98333.41;;;23.63;49.32
48792;BME280;34587;48.816;9.420;2023-05-21T07:30:09;98340.41;;;23.87;48.34
48792;BME280;34587;48.816;9.420;2023-05-21T07:32:35;98343.03;;;23.98;48.63
48792;BME280;34587;48.816;9.420;2023-05-21T07:35:00;98337.88;;;23.63;48.49
48792;BME280;34587;48.816;9.420;2023-05-21T07:37:26;98340.00;;;22.77;50.42
48792;BME280;34587;48.816;9.420;2023-05-21T07:39:51;98339.38;;;23.09;50.59
48792;BME280;34587;48.816;9.420;2023-05-21T07:42:17;98338.28;;;23.80;48.60
48792;BME280;34587;48.816;9.420;2023-05-21T07:44:42;98329.84;;;23.87;48.43
48792;BME280;34587;48.816;9.420;2023-05-21T07:47:07;98337.00;;;24.18;47.22
48792;BME280;34587;48.816;9.420;2023-05-21T07:49:32;98329.28;;;24.38;46.25
48792;BME280;34587;48.816;9.420;2023-05-21T07:51:58;98329.09;;;24.82;45.61
48792;BME280;34587;48.816;9.420;2023-05-21T07:54:23;98333.22;;;24.32;46.21
48792;BME280;34587;48.816;9.420;2023-05-21T07:56:48;98335.69;;;24.67;45.35
48792;BME280;34587;48.816;9.420;2023-05-21T07:59:15;98332.56;;;25.04;44.68
48792;BME280;34587;48.816;9.420;2023-05-21T08:01:41;98337.00;;;25.35;43.82
48792;BME280;34587;48.816;9.420;2023-05-21T08:04:07;98334.44;;;25.24;43.58
48792;BME280;34587;48.816;9.420;2023-05-21T08:06:33;98333.69;;;26.14;42.52
48792;BME280;34587;48.816;9.420;2023-05-21T08:08:59;98331.50;;;27.16;39.81
48792;BME280;34587;48.816;9.420;2023-05-21T08:11:26;98329.50;;;27.37;39.52
48792;BME280;34587;48.816;9.420;2023-05-21T08:13:51;98325.47;;;27.71;37.11
48792;BME280;34587;48.816;9.420;2023-05-21T08:16:17;98323.56;;;27.90;36.71
48792;BME280;34587;48.816;9.420;2023-05-21T08:18:42;98331.31;;;27.47;37.15
48792;BME280;34587;48.816;9.420;2023-05-21T08:21:07;98322.38;;;28.66;35.83
48792;BME280;34587;48.816;9.420;2023-05-21T08:23:33;98319.59;;;29.55;34.76
48792;BME280;34587;48.816;9.420;2023-05-21T08:25:58;98327.88;;;28.82;34.37
48792;BME280;34587;48.816;9.420;2023-05-21T08:28:23;98325.28;;;28.55;35.12
48792;BME280;34587;48.816;9.420;2023-05-21T08:30:49;98333.66;;;28.60;34.14
48792;BME280;34587;48.816;9.420;2023-05-21T08:33:14;98337.25;;;27.21;36.05
48792;BME280;34587;48.816;9.420;2023-05-21T08:35:39;98339.63;;;27.05;38.04
48792;BME280;34587;48.816;9.420;2023-05-21T08:38:05;98332.19;;;27.65;36.66
48792;BME280;34587;48.816;9.420;2023-05-21T08:40:30;98333.34;;;28.81;35.34
48792;BME280;34587;48.816;9.420;2023-05-21T08:42:55;98331.13;;;29.12;34.09
48792;BME280;34587;48.816;9.420;2023-05-21T08:45:21;98332.94;;;28.93;35.59
48792;BME280;34587;48.816;9.420;2023-05-21T08:47:56;98329.00;;;28.80;34.65
48792;BME280;34587;48.816;9.420;2023-05-21T08:50:23;98322.25;;;29.98;32.06
48792;BME280;34587;48.816;9.420;2023-05-21T08:52:50;98330.16;;;28.95;33.67
48792;BME280;34587;48.816;9.420;2023-05-21T08:55:15;98333.47;;;30.68;31.58
48792;BME280;34587;48.816;9.420;2023-05-21T08:57:42;98332.81;;;30.74;32.58
48792;BME280;34587;48.816;9.420;2023-05-21T09:00:08;98327.38;;;30.25;32.19
48792;BME280;34587;48.816;9.420;2023-05-21T09:02:34;98335.28;;;30.01;32.05
48792;BME280;34587;48.816;9.420;2023-05-21T09:05:02;98324.75;;;32.03;29.83
48792;BME280;34587;48.816;9.420;2023-05-21T09:07:28;98329.47;;;33.01;28.70
48792;BME280;34587;48.816;9.420;2023-05-21T09:09:54;98331.50;;;32.22;28.02
48792;BME280;34587;48.816;9.420;2023-05-21T09:12:21;98330.53;;;33.15;27.70
48792;BME280;34587;48.816;9.420;2023-05-21T09:14:47;98330.47;;;34.12;26.11
48792;BME280;34587;48.816;9.420;2023-05-21T09:17:13;98327.31;;;33.19;27.52
48792;BME280;34587;48.816;9.420;2023-05-21T09:20:12;98332.88;;;31.87;28.95
48792;BME280;34587;48.816;9.420;2023-05-21T09:22:42;98337.81;;;31.18;29.15
48792;BME280;34587;48.816;9.420;2023-05-21T09:25:09;98334.78;;;33.76;27.59
48792;BME280;34587;48.816;9.420;2023-05-21T09:27:35;98334.81;;;31.21;29.32
48792;BME280;34587;48.816;9.420;2023-05-21T09:30:09;98344.09;;;31.66;29.21
48792;BME280;34587;48.816;9.420;2023-05-21T09:32:35;98335.63;;;31.38;30.17
48792;BME280;34587;48.816;9.420;2023-05-21T09:35:13;98332.47;;;29.60;32.31
48792;BME280;34587;48.816;9.420;2023-05-21T09:40:15;98327.09;;;30.53;31.26
48792;BME280;34587;48.816;9.420;2023-05-21T09:42:42;98326.75;;;32.32;28.44
48792;BME280;34587;48.816;9.420;2023-05-21T09:45:09;98325.03;;;34.41;25.83
48792;BME280;34587;48.816;9.420;2023-05-21T09:47:40;98318.09;;;34.68;26.17
48792;BME280;34587;48.816;9.420;2023-05-21T09:50:07;98323.94;;;34.72;25.67
48792;BME280;34587;48.816;9.420;2023-05-21T09:52:37;98316.81;;;34.64;26.32
48792;BME280;34587;48.816;9.420;2023-05-21T09:55:09;98326.00;;;31.84;29.04
48792;BME280;34587;48.816;9.420;2023-05-21T09:57:40;98319.03;;;32.06;29.54
48792;BME280;34587;48.816;9.420;2023-05-21T10:00:07;98315.53;;;32.60;29.30
48792;BME280;34587;48.816;9.420;2023-05-21T10:02:36;98312.88;;;34.45;26.82
48792;BME280;34587;48.816;9.420;2023-05-21T10:05:04;98312.59;;;33.30;27.65
48792;BME280;34587;48.816;9.420;2023-05-21T10:07:34;98317.84;;;33.46;27.53
48792;BME280;34587;48.816;9.420;2023-05-21T10:10:02;98313.59;;;34.75;26.47
48792;BME280;34587;48.816;9.420;2023-05-21T10:12:29;98315.13;;;34.63;26.44
48792;BME280;34587;48.816;9.420;2023-05-21T10:15:03;98315.16;;;35.69;24.55
48792;BME280;34587;48.816;9.420;2023-05-21T10:17:29;98316.84;;;33.24;26.99
48792;BME280;34587;48.816;9.420;2023-05-21T10:19:55;98315.41;;;33.81;26.17
48792;BME280;34587;48.816;9.420;2023-05-21T10:22:24;98319.78;;;33.53;27.88
48792;BME280;34587;48.816;9.420;2023-05-21T10:24:51;98307.97;;;33.83;26.89
48792;BME280;34587;48.816;9.420;2023-05-21T10:27:16;98308.56;;;31.08;30.05
48792;BME280;34587;48.816;9.420;2023-05-21T10:29:43;98309.66;;;29.82;32.05
48792;BME280;34587;48.816;9.420;2023-05-21T10:32:10;98308.34;;;30.36;31.04
48792;BME280;34587;48.816;9.420;2023-05-21T10:34:36;98303.47;;;31.54;30.16
48792;BME280;34587;48.816;9.420;2023-05-21T10:37:03;98314.41;;;31.12;30.63
48792;BME280;34587;48.816;9.420;2023-05-21T10:39:29;98310.69;;;32.01;29.10
48792;BME280;34587;48.816;9.420;2023-05-21T10:42:04;98302.56;;;31.70;28.96
48792;BME280;34587;48.816;9.420;2023-05-21T10:44:40;98302.03;;;34.39;25.46
48792;BME280;34587;48.816;9.420;2023-05-21T10:49:53;98302.63;;;32.78;27.40
48792;BME280;34587;48.816;9.420;2023-05-21T10:52:58;98303.53;;;34.63;24.95
48792;BME280;34587;48.816;9.420;2023-05-21T10:55:46;98301.50;;;33.63;25.40
48792;BME280;34587;48.816;9.420;2023-05-21T11:01:09;98296.38;;;33.09;26.51
48792;BME280;34587;48.816;9.420;2023-05-21T11:03:36;98300.03;;;32.70;26.42
48792;BME280;34587;48.816;9.420;2023-05-21T11:06:02;98298.53;;;33.58;25.85
48792;BME280;34587;48.816;9.420;2023-05-21T11:08:30;98303.72;;;33.44;25.66
48792;BME280;34587;48.816;9.420;2023-05-21T11:10:57;98299.97;;;30.31;29.05
48792;BME280;34587;48.816;9.420;2023-05-21T11:13:27;98309.50;;;28.79;31.97
48792;BME280;34587;48.816;9.420;2023-05-21T11:21:15;98290.19;;;31.69;28.03
48792;BME280;34587;48.816;9.420;2023-05-21T11:26:14;98285.25;;;31.50;29.14
48792;BME280;34587;48.816;9.420;2023-05-21T11:28:40;98297.84;;;31.25;28.76
48792;BME280;34587;48.816;9.420;2023-05-21T11:31:25;98286.94;;;33.87;25.76
48792;BME280;34587;48.816;9.420;2023-05-21T11:34:13;98285.19;;;33.49;26.15
48792;BME280;34587;48.816;9.420;2023-05-21T11:36:40;98284.13;;;32.14;26.96
48792;BME280;34587;48.816;9.420;2023-05-21T11:39:15;98277.53;;;32.71;26.86
48792;BME280;34587;48.816;9.420;2023-05-21T11:44:14;98288.94;;;31.48;27.49
48792;BME280;34587;48.816;9.420;2023-05-21T11:46:41;98281.66;;;30.77;28.45
48792;BME280;34587;48.816;9.420;2023-05-21T11:49:08;98290.50;;;30.53;28.68
48792;BME280;34587;48.816;9.420;2023-05-21T11:51:34;98278.84;;;30.12;28.37
48792;BME280;34587;48.816;9.420;2023-05-21T11:54:00;98284.69;;;29.57;29.20
48792;BME280;34587;48.816;9.420;2023-05-21T11:56:27;98278.97;;;29.17;29.87
48792;BME280;34587;48.816;9.420;2023-05-21T11:58:53;98286.56;;;28.15;31.47
48792;BME280;34587;48.816;9.420;2023-05-21T12:01:21;98282.31;;;27.67;31.71
48792;BME280;34587;48.816;9.420;2023-05-21T12:03:47;98281.53;;;27.84;31.76
48792;BME280;34587;48.816;9.420;2023-05-21T12:06:12;98286.97;;;27.28;33.33
48792;BME280;34587;48.816;9.420;2023-05-21T12:08:38;98277.28;;;27.64;32.39
48792;BME280;34587;48.816;9.420;2023-05-21T12:11:03;98288.06;;;27.35;32.65
48792;BME280;34587;48.816;9.420;2023-05-21T12:13:28;98282.91;;;28.16;32.19
48792;BME280;34587;48.816;9.420;2023-05-21T12:15:54;98282.50;;;28.38;32.13
48792;BME280;34587;48.816;9.420;2023-05-21T12:18:20;98276.63;;;28.35;31.90
48792;BME280;34587;48.816;9.420;2023-05-21T12:20:45;98279.16;;;27.54;32.98
48792;BME280;34587;48.816;9.420;2023-05-21T12:23:22;98271.25;;;28.71;32.01
48792;BME280;34587;48.816;9.420;2023-05-21T12:25:48;98275.75;;;29.14;32.92
48792;BME280;34587;48.816;9.420;2023-05-21T12:28:14;98283.03;;;29.56;32.04
48792;BME280;34587;48.816;9.420;2023-05-21T12:30:39;98280.00;;;28.27;33.04
48792;BME280;34587;48.816;9.420;2023-05-21T12:33:05;98283.25;;;27.85;33.43
48792;BME280;34587;48.816;9.420;2023-05-21T12:35:31;98274.59;;;28.01;33.61
48792;BME280;34587;48.816;9.420;2023-05-21T12:37:56;98270.81;;;27.76;35.17
48792;BME280;34587;48.816;9.420;2023-05-21T12:40:33;98288.75;;;27.74;33.08
48792;BME280;34587;48.816;9.420;2023-05-21T12:43:00;98282.34;;;27.20;34.35
48792;BME280;34587;48.816;9.420;2023-05-21T12:45:25;98276.53;;;27.44;33.79
48792;BME280;34587;48.816;9.420;2023-05-21T12:47:51;98278.94;;;27.37;33.58
48792;BME280;34587;48.816;9.420;2023-05-21T12:50:20;98284.81;;;26.84;32.39
48792;BME280;34587;48.816;9.420;2023-05-21T12:52:46;98278.41;;;27.34;32.77
48792;BME280;34587;48.816;9.420;2023-05-21T12:55:15;98284.28;;;27.37;32.76
48792;BME280;34587;48.816;9.420;2023-05-21T12:57:41;98277.38;;;27.45;31.96
48792;BME280;34587;48.816;9.420;2023-05-21T13:00:08;98274.31;;;27.95;31.86
48792;BME280;34587;48.816;9.420;2023-05-21T13:02:40;98275.78;;;27.89;31.88
48792;BME280;34587;48.816;9.420;2023-05-21T13:05:08;98285.78;;;28.05;31.82
48792;BME280;34587;48.816;9.420;2023-05-21T13:07:35;98275.72;;;28.44;32.17
48792;BME280;34587;48.816;9.420;2023-05-21T13:10:02;98273.00;;;28.26;31.99
48792;BME280;34587;48.816;9.420;2023-05-21T13:12:29;98279.72;;;27.85;32.61
48792;BME280;34587;48.816;9.420;2023-05-21T13:14:56;98271.97;;;27.64;33.32
48792;BME280;34587;48.816;9.420;2023-05-21T13:17:23;98279.97;;;27.91;33.22
48792;BME280;34587;48.816;9.420;2023-05-21T13:20:14;98277.41;;;27.35;34.48
48792;BME280;34587;48.816;9.420;2023-05-21T13:22:45;98282.69;;;27.45;34.20
48792;BME280;34587;48.816;9.420;2023-05-21T13:25:12;98274.09;;;27.23;34.27
48792;BME280;34587;48.816;9.420;2023-05-21T13:27:40;98273.22;;;27.32;32.97
48792;BME280;34587;48.816;9.420;2023-05-21T13:30:06;98272.31;;;28.06;31.57
48792;BME280;34587;48.816;9.420;2023-05-21T13:32:32;98275.34;;;28.11;30.57
48792;BME280;34587;48.816;9.420;2023-05-21T13:34:57;98273.94;;;28.53;30.48
48792;BME280;34587;48.816;9.420;2023-05-21T13:37:22;98270.66;;;27.78;31.26
48792;BME280;34587;48.816;9.420;2023-05-21T13:39:48;98274.34;;;27.67;32.17
48792;BME280;34587;48.816;9.420;2023-05-21T13:42:13;98266.88;;;27.80;32.68
48792;BME280;34587;48.816;9.420;2023-05-21T13:44:38;98274.00;;;27.52;33.16
48792;BME280;34587;48.816;9.420;2023-05-21T13:47:05;98272.13;;;27.25;33.60
48792;BME280;34587;48.816;9.420;2023-05-21T13:49:31;98275.78;;;27.24;33.69
48792;BME280;34587;48.816;9.420;2023-05-21T13:51:57;98266.56;;;27.46;33.50
48792;BME280;34587;48.816;9.420;2023-05-21T13:54:24;98268.31;;;27.65;33.44
48792;BME280;34587;48.816;9.420;2023-05-21T13:56:49;98271.72;;;27.57;34.12
48792;BME280;34587;48.816;9.420;2023-05-21T13:59:15;98269.00;;;27.39;34.32
48792;BME280;34587;48.816;9.420;2023-05-21T14:01:40;98276.31;;;27.28;34.37
48792;BME280;34587;48.816;9.420;2023-05-21T14:04:05;98283.94;;;27.13;34.96
48792;BME280;34587;48.816;9.420;2023-05-21T14:06:31;98274.09;;;27.23;34.20
48792;BME280;34587;48.816;9.420;2023-05-21T14:08:58;98271.81;;;27.38;34.64
48792;BME280;34587;48.816;9.420;2023-05-21T14:11:23;98274.69;;;26.98;35.18
48792;BME280;34587;48.816;9.420;2023-05-21T14:13:49;98273.78;;;27.26;35.23
48792;BME280;34587;48.816;9.420;2023-05-21T14:16:15;98277.41;;;27.35;34.43
48792;BME280;34587;48.816;9.420;2023-05-21T14:18:40;98274.50;;;27.56;33.91
48792;BME280;34587;48.816;9.420;2023-05-21T14:21:05;98267.22;;;27.58;34.15
48792;BME280;34587;48.816;9.420;2023-05-21T14:23:31;98266.63;;;27.64;34.35
48792;BME280;34587;48.816;9.420;2023-05-21T14:25:56;98269.59;;;27.33;34.04
48792;BME280;34587;48.816;9.420;2023-05-21T14:28:21;98268.88;;;27.31;34.54
48792;BME280;34587;48.816;9.420;2023-05-21T14:30:47;98264.00;;;27.07;35.35
48792;BME280;34587;48.816;9.420;2023-05-21T14:33:12;98267.78;;;27.24;35.05
48792;BME280;34587;48.816;9.420;2023-05-21T14:35:37;98265.31;;;27.13;34.62
48792;BME280;34587;48.816;9.420;2023-05-21T14:38:03;98262.00;;;27.38;34.06
48792;BME280;34587;48.816;9.420;2023-05-21T14:40:28;98252.06;;;27.31;34.35
48792;BME280;34587;48.816;9.420;2023-05-21T14:42:53;98256.06;;;27.45;35.54
48792;BME280;34587;48.816;9.420;2023-05-21T14:45:20;98259.56;;;27.18;35.34
48792;BME280;34587;48.816;9.420;2023-05-21T14:47:45;98255.97;;;26.89;35.88
48792;BME280;34587;48.816;9.420;2023-05-21T14:50:12;98252.91;;;26.84;36.02
48792;BME280;34587;48.816;9.420;2023-05-21T14:52:37;98247.28;;;26.87;35.21
48792;BME280;34587;48.816;9.420;2023-05-21T14:55:03;98247.81;;;27.01;35.61
48792;BME280;34587;48.816;9.420;2023-05-21T14:57:28;98249.81;;;26.79;35.97
48792;BME280;34587;48.816;9.420;2023-05-21T14:59:53;98248.00;;;26.89;36.36
48792;BME280;34587;48.816;9.420;2023-05-21T15:02:19;98242.50;;;27.01;35.81
48792;BME280;34587;48.816;9.420;2023-05-21T15:04:44;98244.91;;;26.94;35.24
48792;BME280;34587;48.816;9.420;2023-05-21T15:07:10;98247.28;;;26.87;35.44
48792;BME280;34587;48.816;9.420;2023-05-21T15:09:35;98247.72;;;26.34;37.65
48792;BME280;34587;48.816;9.420;2023-05-21T15:12:00;98248.75;;;26.43;37.27
48792;BME280;34587;48.816;9.420;2023-05-21T15:14:25;98249.84;;;26.70;37.23
48792;BME280;34587;48.816;9.420;2023-05-21T15:16:51;98244.81;;;26.57;36.95
48792;BME280;34587;48.816;9.420;2023-05-21T15:19:16;98244.53;;;26.70;36.61
48792;BME280;34587;48.816;9.420;2023-05-21T15:21:41;98248.69;;;26.72;37.08
48792;BME280;34587;48.816;9.420;2023-05-21T15:24:07;98236.97;;;26.65;37.31
48792;BME280;34587;48.816;9.420;2023-05-21T15:26:32;98239.34;;;26.68;37.34
48792;BME280;34587;48.816;9.420;2023-05-21T15:28:57;98243.00;;;26.48;37.14
48792;BME280;34587;48.816;9.420;2023-05-21T15:31:22;98235.59;;;26.61;37.36
48792;BME280;34587;48.816;9.420;2023-05-21T15:33:48;98225.38;;;26.66;37.83
48792;BME280;34587;48.816;9.420;2023-05-21T15:36:13;98234.31;;;26.17;39.17
48792;BME280;34587;48.816;9.420;2023-05-21T15:38:38;98232.75;;;26.14;38.81
48792;BME280;34587;48.816;9.420;2023-05-21T15:41:04;98223.41;;;26.10;38.70
48792;BME280;34587;48.816;9.420;2023-05-21T15:43:30;98215.41;;;26.00;38.96
48792;BME280;34587;48.816;9.420;2023-05-21T15:45:55;98223.81;;;26.34;37.98
48792;BME280;34587;48.816;9.420;2023-05-21T15:48:20;98223.28;;;26.21;38.44
48792;BME280;34587;48.816;9.420;2023-05-21T15:50:50;98221.03;;;26.26;39.09
48792;BME280;34587;48.816;9.420;2023-05-21T15:53:15;98227.88;;;26.00;40.08
48792;BME280;34587;48.816;9.420;2023-05-21T15:55:40;98224.63;;;25.86;38.93
48792;BME280;34587;48.816;9.420;2023-05-21T15:58:05;98225.19;;;26.00;39.50
48792;BME280;34587;48.816;9.420;2023-05-21T16:00:31;98229.94;;;26.06;39.18
48792;BME280;34587;48.816;9.420;2023-05-21T16:02:56;98227.22;;;25.67;39.34
48792;BME280;34587;48.816;9.420;2023-05-21T16:05:22;98230.22;;;25.83;40.36
48792;BME280;34587;48.816;9.420;2023-05-21T16:07:47;98231.66;;;25.97;40.36
48792;BME280;34587;48.816;9.420;2023-05-21T16:10:13;98237.47;;;25.81;39.82
48792;BME280;34587;48.816;9.420;2023-05-21T16:12:38;98230.09;;;25.95;39.91
48792;BME280;34587;48.816;9.420;2023-05-21T16:15:04;98231.66;;;25.97;39.30
48792;BME280;34587;48.816;9.420;2023-05-21T16:17:29;98226.59;;;25.84;40.08
48792;BME280;34587;48.816;9.420;2023-05-21T16:19:55;98232.06;;;25.93;41.47
48792;BME280;34587;48.816;9.420;2023-05-21T16:22:20;98230.91;;;25.85;41.67
48792;BME280;34587;48.816;9.420;2023-05-21T16:24:47;98232.59;;;25.96;41.97
48792;BME280;34587;48.816;9.420;2023-05-21T16:27:12;98229.50;;;25.81;41.62
48792;BME280;34587;48.816;9.420;2023-05-21T16:29:37;98228.75;;;25.60;42.13
48792;BME280;34587;48.816;9.420;2023-05-21T16:32:03;98230.50;;;25.80;40.33
48792;BME280;34587;48.816;9.420;2023-05-21T16:34:29;98227.94;;;25.69;40.75
48792;BME280;34587;48.816;9.420;2023-05-21T16:36:55;98224.94;;;25.53;41.07
48792;BME280;34587;48.816;9.420;2023-05-21T16:39:20;98220.28;;;25.35;41.88
48792;BME280;34587;48.816;9.420;2023-05-21T16:41:45;98219.50;;;25.54;43.64
48792;BME280;34587;48.816;9.420;2023-05-21T16:44:11;98216.56;;;25.57;44.37
48792;BME280;34587;48.816;9.420;2023-05-21T16:46:36;98225.31;;;25.29;44.14
48792;BME280;34587;48.816;9.420;2023-05-21T16:49:01;98221.72;;;25.40;44.18
48792;BME280;34587;48.816;9.420;2023-05-21T16:51:27;98218.00;;;25.21;44.00
48792;BME280;34587;48.816;9.420;2023-05-21T16:53:52;98217.81;;;25.13;42.12
48792;BME280;34587;48.816;9.420;2023-05-21T16:56:17;98222.50;;;25.30;43.36
48792;BME280;34587;48.816;9.420;2023-05-21T16:58:42;98219.41;;;25.25;43.04
48792;BME280;34587;48.816;9.420;2023-05-21T17:01:08;98217.75;;;25.24;42.27
48792;BME280;34587;48.816;9.420;2023-05-21T17:03:33;98215.81;;;25.36;42.44
48792;BME280;34587;48.816;9.420;2023-05-21T17:05:59;98218.53;;;25.15;43.73
48792;BME280;34587;48.816;9.420;2023-05-21T17:08:24;98219.84;;;25.30;43.64
48792;BME280;34587;48.816;9.420;2023-05-21T17:10:50;98223.19;;;25.32;44.06
48792;BME280;34587;48.816;9.420;2023-05-21T17:13:15;98218.25;;;25.18;44.89
48792;BME280;34587;48.816;9.420;2023-05-21T17:15:40;98213.91;;;24.86;46.06
48792;BME280;34587;48.816;9.420;2023-05-21T17:18:05;98210.28;;;24.87;46.78
48792;BME280;34587;48.816;9.420;2023-05-21T17:20:31;98213.66;;;24.99;46.71
48792;BME280;34587;48.816;9.420;2023-05-21T17:22:56;98209.19;;;24.69;45.44
48792;BME280;34587;48.816;9.420;2023-05-21T17:25:21;98213.34;;;24.62;46.62
48792;BME280;34587;48.816;9.420;2023-05-21T17:27:49;98211.00;;;24.69;46.44
48792;BME280;34587;48.816;9.420;2023-05-21T17:30:16;98215.09;;;24.52;45.88
48792;BME280;34587;48.816;9.420;2023-05-21T17:32:42;98216.25;;;24.59;46.99
48792;BME280;34587;48.816;9.420;2023-05-21T17:35:07;98220.94;;;24.55;49.53
48792;BME280;34587;48.816;9.420;2023-05-21T17:37:33;98222.84;;;24.44;50.87
48792;BME280;34587;48.816;9.420;2023-05-21T17:39:58;98218.34;;;24.12;52.43
48792;BME280;34587;48.816;9.420;2023-05-21T17:42:23;98224.69;;;24.00;53.02
48792;BME280;34587;48.816;9.420;2023-05-21T17:44:49;98218.75;;;23.42;54.38
48792;BME280;34587;48.816;9.420;2023-05-21T17:47:14;98228.63;;;23.28;54.13
48792;BME280;34587;48.816;9.420;2023-05-21T17:49:39;98231.91;;;22.86;54.47
48792;BME280;34587;48.816;9.420;2023-05-21T17:52:05;98222.41;;;22.61;55.88
48792;BME280;34587;48.816;9.420;2023-05-21T17:54:30;98229.47;;;22.60;55.39
48792;BME280;34587;48.816;9.420;2023-05-21T17:56:56;98225.38;;;22.56;55.73
48792;BME280;34587;48.816;9.420;2023-05-21T17:59:22;98238.25;;;22.25;57.34
48792;BME280;34587;48.816;9.420;2023-05-21T18:01:47;98230.50;;;22.35;57.26